createdAt,value
2023-04-25T00:02:16.739Z,11.90
2023-04-25T00:04:44.730Z,11.00
2023-04-25T00:07:12.303Z,12.30
2023-04-25T00:09:39.248Z,14.60
2023-04-25T00:12:06.901Z,11.50
2023-04-25T00:14:35.304Z,12.80
2023-04-25T00:17:03.777Z,13.00
2023-04-25T00:19:30.663Z,14.00
2023-04-25T00:21:57.457Z,12.40
2023-04-25T00:24:24.205Z,13.20
2023-04-25T00:26:51.174Z,12.20
2023-04-25T00:29:18.086Z,12.20
2023-04-25T00:31:44.949Z,12.60
2023-04-25T00:34:11.823Z,12.10
2023-04-25T00:36:39.248Z,11.00
2023-04-25T00:39:06.053Z,9.80
2023-04-25T00:41:33.132Z,10.60
2023-04-25T00:44:00.436Z,10.90
2023-04-25T00:46:27.288Z,11.70
2023-04-25T00:48:54.144Z,9.20
2023-04-25T00:51:21.842Z,9.50
2023-04-25T00:53:50.364Z,11.30
2023-04-25T00:56:17.655Z,11.70
2023-04-25T00:58:44.423Z,11.10
2023-04-25T01:01:11.690Z,10.70
2023-04-25T01:03:42.018Z,10.10
2023-04-25T01:06:10.339Z,10.60
2023-04-25T01:08:38.496Z,10.20
2023-04-25T01:11:05.855Z,10.40
2023-04-25T01:13:33.121Z,10.00
2023-04-25T01:16:00.637Z,10.40
2023-04-25T01:18:27.523Z,11.50
2023-04-25T01:20:54.781Z,10.40
2023-04-25T01:23:22.628Z,10.00
2023-04-25T01:25:49.999Z,11.10
2023-04-25T01:28:17.322Z,10.20
2023-04-25T01:30:44.168Z,10.10
2023-04-25T01:33:11.030Z,10.70
2023-04-25T01:35:37.778Z,10.10
2023-04-25T01:38:04.578Z,11.50
2023-04-25T01:40:33.344Z,10.90
2023-04-25T01:43:00.175Z,11.70
2023-04-25T01:45:26.933Z,12.30
2023-04-25T01:47:53.895Z,11.60
2023-04-25T01:50:21.307Z,10.60
2023-04-25T01:52:48.644Z,11.90
2023-04-25T01:55:15.759Z,12.10
2023-04-25T02:00:33.822Z,12.80
2023-04-25T02:03:00.747Z,13.90
2023-04-25T02:05:36.664Z,11.00
2023-04-25T02:08:09.373Z,13.00
2023-04-25T02:10:36.412Z,13.00
2023-04-25T02:13:19.463Z,11.70
2023-04-25T02:15:58.406Z,11.80
2023-04-25T02:18:27.411Z,11.30
2023-04-25T02:20:54.269Z,10.80
2023-04-25T02:23:21.244Z,9.80
2023-04-25T02:25:48.049Z,11.70
2023-04-25T02:28:14.899Z,9.80
2023-04-25T02:30:41.854Z,12.20
2023-04-25T02:33:08.877Z,12.00
2023-04-25T02:35:36.457Z,9.00
2023-04-25T02:38:03.417Z,11.00
2023-04-25T02:40:30.255Z,10.70
2023-04-25T02:42:57.369Z,12.20
2023-04-25T02:45:27.040Z,11.60
2023-04-25T02:47:53.958Z,12.40
2023-04-25T02:50:21.019Z,13.30
2023-04-25T02:52:48.019Z,11.10
2023-04-25T02:55:19.249Z,11.70
2023-04-25T02:57:46.437Z,12.40
2023-04-25T03:00:16.662Z,11.70
2023-04-25T03:05:58.477Z,12.20
2023-04-25T03:08:47.394Z,12.70
2023-04-25T03:11:32.865Z,13.60
2023-04-25T03:14:19.324Z,13.80
2023-04-25T03:16:46.384Z,11.40
2023-04-25T03:19:13.301Z,13.30
2023-04-25T03:21:40.115Z,12.70
2023-04-25T03:24:06.944Z,9.80
2023-04-25T03:26:33.702Z,12.00
2023-04-25T03:29:00.597Z,12.40
2023-04-25T03:31:27.940Z,12.60
2023-04-25T03:33:54.661Z,11.90
2023-04-25T03:36:22.348Z,10.80
2023-04-25T03:38:49.478Z,11.00
2023-04-25T03:41:16.650Z,11.10
2023-04-25T03:43:47.616Z,10.30
2023-04-25T03:46:14.842Z,11.80
2023-04-25T03:48:42.467Z,10.10
2023-04-25T03:51:10.139Z,10.50
2023-04-25T03:53:38.694Z,11.00
2023-04-25T03:56:21.577Z,10.20
2023-04-25T03:58:52.821Z,11.10
2023-04-25T04:01:20.601Z,10.10
2023-04-25T04:03:47.911Z,9.50
2023-04-25T04:06:15.948Z,10.00
2023-04-25T04:11:12.868Z,9.50
2023-04-25T04:13:39.737Z,10.20
2023-04-25T04:16:07.339Z,9.90
2023-04-25T04:18:34.507Z,10.00
2023-04-25T04:21:02.219Z,10.70
2023-04-25T04:23:32.159Z,9.60
2023-04-25T04:25:59.639Z,10.90
2023-04-25T04:28:29.498Z,10.10
2023-04-25T04:31:09.122Z,9.00
2023-04-25T04:33:36.074Z,9.70
2023-04-25T04:36:05.110Z,8.90
2023-04-25T04:38:33.155Z,8.40
2023-04-25T04:41:02.358Z,8.40
2023-04-25T04:43:40.780Z,8.70
2023-04-25T04:46:29.789Z,8.60
2023-04-25T04:49:11.911Z,7.80
2023-04-25T04:51:57.875Z,8.50
2023-04-25T04:56:53.454Z,7.90
2023-04-25T04:59:29.929Z,7.40
2023-04-25T05:02:05.752Z,7.80
2023-04-25T05:04:55.467Z,8.40
2023-04-25T05:07:41.434Z,7.90
2023-04-25T05:10:27.359Z,7.30
2023-04-25T05:15:57.930Z,7.30
2023-04-25T05:18:43.248Z,7.30
2023-04-25T05:21:23.956Z,6.60
2023-04-25T05:24:02.884Z,5.70
2023-04-25T05:26:48.661Z,7.90
2023-04-25T05:29:44.810Z,6.80
2023-04-25T05:32:18.908Z,7.30
2023-04-25T05:34:47.655Z,7.20
2023-04-25T05:37:27.710Z,6.70
2023-04-25T05:40:07.763Z,6.50
2023-04-25T05:43:10.073Z,6.30
2023-04-25T05:45:58.154Z,7.10
2023-04-25T05:48:27.754Z,6.00
2023-04-25T05:51:00.251Z,5.70
2023-04-25T05:53:59.532Z,6.80
2023-04-25T05:56:27.406Z,6.50
2023-04-25T05:58:54.708Z,7.20
2023-04-25T06:01:22.561Z,7.20
2023-04-25T06:03:49.870Z,7.10
2023-04-25T06:06:17.842Z,7.90
2023-04-25T06:08:44.699Z,6.70
2023-04-25T06:11:12.392Z,5.90
2023-04-25T06:13:39.288Z,6.70
2023-04-25T06:16:07.517Z,7.90
2023-04-25T06:18:34.310Z,8.20
2023-04-25T06:21:01.629Z,7.30
2023-04-25T06:23:29.023Z,7.30
2023-04-25T06:26:04.864Z,7.70
2023-04-25T06:28:32.060Z,6.90
2023-04-25T06:30:59.851Z,7.50
2023-04-25T06:33:27.698Z,7.00
2023-04-25T06:35:54.958Z,7.50
2023-04-25T06:38:24.733Z,8.20
2023-04-25T06:40:52.494Z,8.30
2023-04-25T06:43:19.455Z,7.70
2023-04-25T06:46:15.707Z,8.30
2023-04-25T06:48:44.939Z,7.60
2023-04-25T06:51:11.993Z,7.10
2023-04-25T06:53:39.230Z,6.80
2023-04-25T06:56:07.561Z,6.60
2023-04-25T06:58:46.790Z,6.00
2023-04-25T07:01:20.973Z,6.10
2023-04-25T07:03:48.066Z,5.20
2023-04-25T07:06:17.438Z,4.50
2023-04-25T07:08:44.320Z,4.40
2023-04-25T07:11:11.146Z,4.30
2023-04-25T07:13:38.076Z,4.10
2023-04-25T07:16:06.062Z,4.30
2023-04-25T07:18:33.693Z,4.40
2023-04-25T07:21:00.934Z,4.10
2023-04-25T07:23:28.509Z,3.40
2023-04-25T07:25:55.620Z,4.00
2023-04-25T07:28:22.875Z,3.80
2023-04-25T07:30:49.584Z,4.20
2023-04-25T07:33:16.436Z,4.10
2023-04-25T07:35:44.303Z,3.60
2023-04-25T07:38:11.817Z,4.60
2023-04-25T07:40:38.925Z,4.00
2023-04-25T07:43:07.589Z,4.00
2023-04-25T07:45:40.319Z,3.90
2023-04-25T07:48:07.647Z,4.00
2023-04-25T07:50:36.627Z,3.30
2023-04-25T07:53:03.635Z,3.40
2023-04-25T07:55:34.779Z,4.10
2023-04-25T07:58:10.698Z,3.60
2023-04-25T08:00:39.124Z,3.80
2023-04-25T08:03:38.535Z,3.70
2023-04-25T08:06:09.734Z,3.40
2023-04-25T08:08:44.352Z,3.60
2023-04-25T08:11:13.353Z,3.90
2023-04-25T08:13:40.873Z,3.60
2023-04-25T08:16:07.824Z,3.40
2023-04-25T08:18:35.363Z,3.80
2023-04-25T08:21:02.302Z,3.30
2023-04-25T08:23:29.102Z,3.40
2023-04-25T08:26:05.883Z,3.00
2023-04-25T08:28:33.640Z,2.60
2023-04-25T08:31:01.009Z,3.50
2023-04-25T08:33:33.843Z,2.80
2023-04-25T08:36:31.593Z,4.20
2023-04-25T08:39:05.543Z,3.50
2023-04-25T08:41:32.828Z,3.60
2023-04-25T08:44:01.344Z,3.50
2023-04-25T08:46:28.352Z,3.20
2023-04-25T08:49:06.122Z,3.00
2023-04-25T08:51:33.697Z,3.00
2023-04-25T08:56:47.725Z,3.00
2023-04-25T08:59:14.600Z,2.40
2023-04-25T09:01:42.883Z,2.70
2023-04-25T09:04:10.304Z,2.70
2023-04-25T09:06:37.371Z,2.90
2023-04-25T09:09:06.340Z,3.40
2023-04-25T09:11:34.317Z,2.90
2023-04-25T09:14:16.065Z,3.20
2023-04-25T09:17:05.966Z,2.90
2023-04-25T09:19:42.629Z,2.90
2023-04-25T09:22:23.858Z,2.80
2023-04-25T09:24:52.436Z,2.90
2023-04-25T09:27:24.062Z,3.10
2023-04-25T09:30:00.372Z,3.20
2023-04-25T09:32:28.040Z,3.40
2023-04-25T09:34:57.196Z,3.30
2023-04-25T09:37:30.982Z,3.00
2023-04-25T09:40:27.510Z,3.00
2023-04-25T09:43:10.460Z,3.20
2023-04-25T09:45:46.886Z,3.00
2023-04-25T09:48:24.312Z,3.10
2023-04-25T09:51:06.774Z,3.00
2023-04-25T09:53:53.222Z,3.20
2023-04-25T09:56:40.763Z,3.20
2023-04-25T09:59:08.362Z,3.20
2023-04-25T10:01:37.795Z,3.30
2023-04-25T10:04:24.150Z,3.00
2023-04-25T10:07:07.367Z,2.70
2023-04-25T10:09:34.969Z,2.80
2023-04-25T10:12:03.931Z,3.00
2023-04-25T10:14:32.149Z,3.20
2023-04-25T10:16:59.766Z,3.20
2023-04-25T10:19:27.654Z,2.90
2023-04-25T10:22:23.780Z,3.10
2023-04-25T10:24:51.136Z,2.70
2023-04-25T10:27:17.882Z,3.00
2023-04-25T10:29:46.505Z,3.00
2023-04-25T10:32:13.504Z,3.00
2023-04-25T10:34:47.653Z,2.60
2023-04-25T10:37:14.512Z,3.30
2023-04-25T10:39:42.495Z,2.90
2023-04-25T10:42:09.501Z,3.20
2023-04-25T10:44:38.004Z,2.70
2023-04-25T10:47:06.772Z,3.10
2023-04-25T10:49:38.238Z,3.20
2023-04-25T10:52:24.030Z,3.00
2023-04-25T10:54:56.019Z,3.00
2023-04-25T10:57:40.234Z,3.40
2023-04-25T11:00:12.192Z,3.30
2023-04-25T11:02:53.249Z,3.40
2023-04-25T11:08:07.053Z,3.00
2023-04-25T11:10:36.802Z,3.80
2023-04-25T11:13:03.647Z,3.30
2023-04-25T11:15:30.824Z,3.20
2023-04-25T11:17:57.744Z,3.10
2023-04-25T11:20:27.013Z,2.80
2023-04-25T11:22:54.027Z,3.20
2023-04-25T11:25:21.185Z,3.60
2023-04-25T11:27:52.428Z,3.20
2023-04-25T11:30:19.804Z,2.80
2023-04-25T11:32:46.672Z,2.50
2023-04-25T11:35:13.556Z,2.80
2023-04-25T11:37:44.678Z,2.90
2023-04-25T11:42:48.839Z,2.80
2023-04-25T11:45:15.851Z,3.10
2023-04-25T11:47:42.771Z,2.40
2023-04-25T11:50:10.919Z,3.30
2023-04-25T11:52:42.180Z,3.50
2023-04-25T11:55:11.504Z,2.80
2023-04-25T11:57:39.717Z,3.00
2023-04-25T12:00:18.884Z,2.80
2023-04-25T12:02:47.637Z,3.00
2023-04-25T12:07:49.025Z,2.50
2023-04-25T12:10:17.128Z,2.50
2023-04-25T12:12:45.539Z,2.80
2023-04-25T12:15:16.782Z,2.40
2023-04-25T12:17:44.483Z,3.00
2023-04-25T12:20:15.892Z,3.40
2023-04-25T12:22:45.687Z,2.90
2023-04-25T12:25:13.984Z,2.80
2023-04-25T12:27:46.321Z,2.40
2023-04-25T12:30:13.406Z,2.60
2023-04-25T12:32:40.708Z,2.90
2023-04-25T12:35:08.420Z,3.10
2023-04-25T12:37:35.171Z,2.90
2023-04-25T12:40:02.028Z,2.70
2023-04-25T12:42:28.824Z,2.90
2023-04-25T12:44:55.614Z,2.70
2023-04-25T12:47:22.476Z,2.80
2023-04-25T12:49:49.974Z,3.10
2023-04-25T12:52:16.721Z,3.60
2023-04-25T12:54:43.592Z,2.70
2023-04-25T12:57:10.730Z,2.90
2023-04-25T12:59:37.665Z,3.20
2023-04-25T13:02:04.687Z,3.20
2023-04-25T13:04:31.858Z,2.90
2023-04-25T13:06:58.790Z,2.70
2023-04-25T13:09:25.549Z,2.80
2023-04-25T13:11:54.880Z,2.80
2023-04-25T13:14:24.082Z,3.00
2023-04-25T13:16:51.069Z,2.90
2023-04-25T13:19:18.024Z,3.10
2023-04-25T13:21:44.785Z,2.80
2023-04-25T13:24:11.615Z,2.90
2023-04-25T13:26:38.414Z,2.90
2023-04-25T13:29:05.215Z,3.00
2023-04-25T13:31:32.214Z,3.10
2023-04-25T13:33:59.045Z,3.00
2023-04-25T13:36:25.817Z,2.80
2023-04-25T13:38:55.677Z,3.20
2023-04-25T13:41:22.497Z,3.10
2023-04-25T13:43:49.916Z,3.10
2023-04-25T13:46:35.531Z,2.90
2023-04-25T13:49:12.178Z,3.10
2023-04-25T13:51:43.687Z,3.10
2023-04-25T13:56:37.837Z,2.80
2023-04-25T13:59:04.597Z,2.90
2023-04-25T14:01:35.118Z,3.30
2023-04-25T14:04:04.854Z,3.10
2023-04-25T14:06:33.135Z,3.00
2023-04-25T14:09:02.114Z,2.70
2023-04-25T14:11:28.915Z,3.40
2023-04-25T14:13:55.708Z,2.90
2023-04-25T14:16:24.109Z,3.70
2023-04-25T14:18:51.128Z,3.10
2023-04-25T14:21:17.985Z,3.30
2023-04-25T14:23:44.729Z,3.20
2023-04-25T14:26:13.652Z,3.00
2023-04-25T14:28:40.530Z,3.10
2023-04-25T14:31:07.307Z,2.90
2023-04-25T14:33:34.274Z,2.50
2023-04-25T14:36:01.120Z,3.20
2023-04-25T14:38:27.910Z,3.00
2023-04-25T14:40:55.232Z,2.90
2023-04-25T14:43:22.305Z,2.70
2023-04-25T14:45:49.233Z,2.70
2023-04-25T14:48:16.436Z,3.20
2023-04-25T14:50:43.312Z,2.90
2023-04-25T14:53:10.075Z,3.30
2023-04-25T14:55:37.091Z,3.10
2023-04-25T14:58:03.833Z,3.00
2023-04-25T15:00:32.758Z,3.00
2023-04-25T15:03:00.023Z,3.10
2023-04-25T15:05:27.685Z,2.90
2023-04-25T15:07:54.445Z,3.10
2023-04-25T15:10:21.637Z,3.10
2023-04-25T15:12:48.349Z,3.20
2023-04-25T15:15:22.808Z,3.30
2023-04-25T15:17:54.005Z,3.80
2023-04-25T15:20:22.263Z,3.50
2023-04-25T15:22:49.842Z,2.80
2023-04-25T15:25:19.572Z,3.20
2023-04-25T15:27:49.040Z,2.80
2023-04-25T15:30:16.759Z,3.40
2023-04-25T15:32:44.462Z,3.00
2023-04-25T15:35:11.390Z,3.10
2023-04-25T15:37:38.295Z,2.80
2023-04-25T15:40:09.927Z,3.50
2023-04-25T15:42:37.744Z,3.10
2023-04-25T15:45:05.418Z,3.30
2023-04-25T15:47:32.489Z,2.80
2023-04-25T15:49:59.617Z,3.30
2023-04-25T15:52:26.403Z,3.40
2023-04-25T15:54:53.242Z,4.00
2023-04-25T15:57:20.023Z,4.60
2023-04-25T15:59:48.964Z,4.10
2023-04-25T16:02:16.510Z,4.00
2023-04-25T16:04:43.685Z,4.30
2023-04-25T16:07:10.915Z,3.70
2023-04-25T16:09:37.754Z,4.30
2023-04-25T16:12:04.894Z,3.70
2023-04-25T16:14:31.779Z,3.60
2023-04-25T16:17:00.255Z,4.40
2023-04-25T16:19:27.092Z,4.00
2023-04-25T16:21:54.164Z,4.60
2023-04-25T16:24:20.900Z,4.30
2023-04-25T16:26:47.970Z,4.00
2023-04-25T16:29:16.886Z,3.70
2023-04-25T16:31:43.994Z,3.60
2023-04-25T16:34:12.199Z,3.70
2023-04-25T16:36:38.948Z,3.80
2023-04-25T16:39:08.603Z,3.40
2023-04-25T16:41:35.647Z,4.20
2023-04-25T16:44:02.447Z,3.90
2023-04-25T16:46:29.192Z,4.00
2023-04-25T16:48:56.423Z,3.50
2023-04-25T16:51:25.219Z,3.70
2023-04-25T16:53:53.131Z,3.70
2023-04-25T16:56:20.076Z,4.80
2023-04-25T16:58:46.827Z,4.00
2023-04-25T17:01:16.194Z,4.80
2023-04-25T17:03:43.816Z,5.00
2023-04-25T17:06:10.709Z,4.40
2023-04-25T17:08:37.653Z,4.80
2023-04-25T17:13:44.290Z,6.00
2023-04-25T17:16:12.403Z,4.80
2023-04-25T17:18:39.250Z,5.60
2023-04-25T17:21:06.289Z,6.20
2023-04-25T17:23:33.654Z,5.50
2023-04-25T17:26:00.601Z,6.70
2023-04-25T17:28:27.591Z,7.70
2023-04-25T17:30:55.106Z,10.70
2023-04-25T17:33:26.875Z,9.50
2023-04-25T17:35:54.459Z,7.10
2023-04-25T17:38:21.725Z,9.20
2023-04-25T17:40:48.928Z,8.60
2023-04-25T17:43:16.246Z,10.90
2023-04-25T17:45:43.074Z,16.20
2023-04-25T17:48:09.851Z,14.30
2023-04-25T17:50:36.659Z,20.30
2023-04-25T17:53:03.716Z,12.70
2023-04-25T17:55:30.899Z,9.80
2023-04-25T17:57:57.653Z,12.90
2023-04-25T18:00:24.895Z,14.20
2023-04-25T18:02:52.789Z,9.20
2023-04-25T18:05:20.297Z,14.40
2023-04-25T18:07:47.247Z,11.60
2023-04-25T18:10:14.470Z,9.10
2023-04-25T18:12:41.665Z,8.20
2023-04-25T18:15:09.333Z,7.80
2023-04-25T18:17:42.879Z,9.90
2023-04-25T18:20:14.026Z,8.70
2023-04-25T18:22:41.129Z,9.50
2023-04-25T18:25:09.873Z,11.80
2023-04-25T18:27:40.241Z,9.80
2023-04-25T18:30:09.045Z,12.20
2023-04-25T18:32:36.080Z,8.70
2023-04-25T18:35:03.638Z,9.10
2023-04-25T18:37:31.147Z,9.00
2023-04-25T18:39:58.658Z,12.90
2023-04-25T18:42:25.600Z,11.50
2023-04-25T18:44:52.962Z,9.40
2023-04-25T18:47:19.737Z,7.80
2023-04-25T18:49:47.872Z,6.80
2023-04-25T18:52:16.170Z,6.80
2023-04-25T18:54:43.365Z,7.00
2023-04-25T18:57:14.513Z,7.30
2023-04-25T18:59:41.774Z,14.40
2023-04-25T19:02:09.052Z,10.30
2023-04-25T19:04:36.106Z,9.10
2023-04-25T19:07:04.205Z,8.70
2023-04-25T19:09:31.195Z,11.40
2023-04-25T19:11:57.934Z,9.30
2023-04-25T19:14:26.051Z,10.30
2023-04-25T19:16:54.227Z,8.00
2023-04-25T19:19:21.090Z,8.00
2023-04-25T19:21:50.613Z,7.10
2023-04-25T19:24:17.384Z,6.50
2023-04-25T19:26:44.155Z,6.40
2023-04-25T19:29:15.057Z,6.70
2023-04-25T19:31:44.129Z,7.30
2023-04-25T19:34:11.627Z,7.10
2023-04-25T19:36:39.266Z,6.80
2023-04-25T19:39:07.377Z,6.90
2023-04-25T19:41:39.031Z,7.20
2023-04-25T19:44:07.631Z,7.10
2023-04-25T19:46:34.688Z,6.60
2023-04-25T19:49:01.598Z,7.20
2023-04-25T19:51:31.366Z,8.60
2023-04-25T19:53:58.062Z,8.30
2023-04-25T19:56:24.803Z,7.10
2023-04-25T19:58:51.892Z,8.40
2023-04-25T20:01:18.990Z,8.10
2023-04-25T20:03:48.360Z,11.10
2023-04-25T20:06:15.342Z,14.90
2023-04-25T20:08:42.140Z,13.30
2023-04-25T20:11:09.464Z,9.80
2023-04-25T20:13:36.743Z,10.40
2023-04-25T20:16:03.610Z,8.00
2023-04-25T20:18:30.353Z,9.00
2023-04-25T20:20:57.141Z,9.00
2023-04-25T20:23:23.899Z,8.20
2023-04-25T20:25:50.736Z,9.60
2023-04-25T20:28:17.900Z,7.70
2023-04-25T20:30:44.837Z,9.50
2023-04-25T20:33:11.710Z,9.20
2023-04-25T20:35:38.507Z,7.70
2023-04-25T20:38:05.564Z,9.40
2023-04-25T20:40:32.353Z,7.30
2023-04-25T20:42:59.133Z,7.90
2023-04-25T20:45:29.963Z,9.50
2023-04-25T20:47:56.848Z,8.30
2023-04-25T20:50:23.736Z,8.60
2023-04-25T20:52:51.236Z,8.50
2023-04-25T20:55:18.581Z,9.20
2023-04-25T20:57:45.622Z,12.10
2023-04-25T21:00:26.604Z,9.10
2023-04-25T21:02:53.694Z,13.00
2023-04-25T21:05:23.573Z,14.10
2023-04-25T21:07:52.508Z,11.20
2023-04-25T21:10:19.399Z,15.80
2023-04-25T21:12:48.124Z,13.30
2023-04-25T21:15:25.000Z,16.00
2023-04-25T21:17:52.281Z,16.80
2023-04-25T21:20:20.525Z,14.20
2023-04-25T21:22:50.382Z,16.80
2023-04-25T21:25:20.564Z,15.40
2023-04-25T21:27:49.385Z,11.20
2023-04-25T21:30:22.865Z,14.10
2023-04-25T21:32:53.214Z,13.00
2023-04-25T21:35:21.098Z,11.40
2023-04-25T21:37:47.987Z,12.10
2023-04-25T21:40:15.336Z,11.10
2023-04-25T21:42:42.576Z,13.40
2023-04-25T21:45:10.233Z,12.20
2023-04-25T21:47:37.199Z,12.60
2023-04-25T21:50:04.756Z,12.50
2023-04-25T21:52:32.032Z,9.90
2023-04-25T21:54:58.806Z,13.20
2023-04-25T21:57:25.615Z,13.50
2023-04-25T21:59:52.802Z,11.80
2023-04-25T22:02:19.793Z,12.70
2023-04-25T22:04:49.920Z,12.10
2023-04-25T22:07:16.693Z,12.10
2023-04-25T22:09:54.521Z,12.90
2023-04-25T22:12:23.634Z,10.60
2023-04-25T22:14:50.978Z,13.50
2023-04-25T22:17:18.953Z,11.90
2023-04-25T22:19:46.906Z,10.50
2023-04-25T22:22:14.060Z,11.20
2023-04-25T22:24:42.448Z,10.30
2023-04-25T22:27:11.040Z,11.80
2023-04-25T22:29:37.891Z,12.40
2023-04-25T22:32:05.558Z,9.40
2023-04-25T22:34:32.318Z,13.10
2023-04-25T22:36:59.710Z,11.00
2023-04-25T22:39:26.777Z,10.20
2023-04-25T22:41:54.420Z,12.00
2023-04-25T22:44:22.514Z,11.00
2023-04-25T22:46:49.558Z,12.10
2023-04-25T22:49:17.391Z,11.50
2023-04-25T22:51:44.296Z,9.50
2023-04-25T22:54:11.048Z,12.30
2023-04-25T22:56:37.866Z,11.90
2023-04-25T22:59:04.644Z,12.10
2023-04-25T23:01:31.709Z,12.90
2023-04-25T23:03:58.817Z,10.10
2023-04-25T23:06:26.557Z,12.40
2023-04-25T23:08:53.767Z,10.20
2023-04-25T23:11:21.821Z,10.70
2023-04-25T23:13:48.567Z,12.00
2023-04-25T23:16:15.519Z,11.70
2023-04-25T23:18:42.404Z,12.30
2023-04-25T23:21:09.336Z,11.90
2023-04-25T23:23:36.589Z,10.60
2023-04-25T23:26:10.202Z,12.40
2023-04-25T23:28:48.867Z,11.20
2023-04-25T23:31:15.941Z,10.90
2023-04-25T23:33:42.840Z,11.70
2023-04-25T23:36:20.008Z,10.10
2023-04-25T23:38:47.394Z,12.00
2023-04-25T23:41:14.323Z,11.40
2023-04-25T23:43:41.073Z,10.50
2023-04-25T23:46:09.310Z,12.00
2023-04-25T23:48:36.375Z,10.70
2023-04-25T23:51:03.515Z,11.70
2023-04-25T23:53:30.282Z,12.40
2023-04-25T23:55:57.009Z,11.90
2023-04-25T23:58:23.834Z,11.00
